Time;durP1;ratioP1;P1;durP2;ratioP2;P2;SDS_P1;SDS_P2;PMS_P1;PMS_P2;Temp;Humidity;BMP_temperature;BMP_pressure;BME280_temperature;BME280_humidity;BME280_pressure;Samples;Min_cycle;Max_cycle;Signal;HPM_P1;HPM_P2
2022/07/17 00:04:16;;;;;;;6.90;6.22;;;27.10;49.90;;;;;;4911669;56;21012;-34
2022/07/17 00:09:17;;;;;;;7.60;6.30;;;27.20;49.90;;;;;;4640324;56;21016;-31
2022/07/17 00:14:17;;;;;;;7.43;6.72;;;27.10;49.90;;;;;;4617029;56;21024;-30
2022/07/17 00:19:18;;;;;;;7.20;6.50;;;27.10;49.90;;;;;;4628007;56;21012;-31
2022/07/17 00:24:22;;;;;;;6.68;6.07;;;27.10;49.90;;;;;;4757320;56;21048;-28
2022/07/17 00:29:23;;;;;;;6.78;6.07;;;27.20;50.10;;;;;;4639053;56;21559;-35
2022/07/17 00:34:24;;;;;;;7.05;6.28;;;27.10;50.10;;;;;;4614613;57;21029;-31
2022/07/17 00:39:25;;;;;;;7.32;6.62;;;27.10;50.00;;;;;;4681559;56;21072;-33
2022/07/17 00:44:26;;;;;;;7.12;6.53;;;27.10;50.10;;;;;;4615350;60;21088;-31
2022/07/17 00:49:27;;;;;;;7.55;6.75;;;27.10;50.10;;;;;;4740728;56;21072;-30
2022/07/17 00:54:29;;;;;;;6.55;5.95;;;27.20;50.20;;;;;;4614631;56;21116;-29
2022/07/17 00:59:33;;;;;;;6.95;6.35;;;27.20;50.20;;;;;;4659969;56;21053;-29
2022/07/17 01:04:34;;;;;;;6.70;6.00;;;27.20;50.30;;;;;;4827299;56;21566;-28
2022/07/17 01:09:36;;;;;;;6.65;6.05;;;27.10;50.30;;;;;;4781120;56;21008;-28
2022/07/17 01:14:37;;;;;;;6.80;6.20;;;27.20;50.30;;;;;;4819019;56;21017;-30
2022/07/17 01:19:38;;;;;;;6.78;6.12;;;27.10;50.30;;;;;;4649347;56;21092;-29
2022/07/17 01:24:40;;;;;;;6.32;5.72;;;27.10;50.40;;;;;;4614645;60;21056;-28
2022/07/17 01:29:41;;;;;;;6.40;5.90;;;27.10;50.30;;;;;;4615559;60;20993;-28
2022/07/17 01:34:41;;;;;;;6.90;6.30;;;27.10;50.30;;;;;;4619383;56;21029;-31
2022/07/17 01:39:54;;;;;;;6.32;5.80;;;27.20;50.60;;;;;;4724023;56;21004;-29
2022/07/17 01:44:55;;;;;;;6.32;5.82;;;27.10;50.40;;;;;;4656596;56;21088;-29
2022/07/17 01:49:57;;;;;;;5.95;5.45;;;27.20;50.50;;;;;;4772838;56;21543;-30
2022/07/17 01:54:58;;;;;;;6.07;5.40;;;27.10;50.50;;;;;;4731824;56;21012;-32
2022/07/17 01:59:59;;;;;;;5.80;5.30;;;27.10;50.50;;;;;;4631279;56;21100;-30
2022/07/17 02:05:00;;;;;;;7.30;6.15;;;27.10;50.60;;;;;;4766633;56;21550;-29
2022/07/17 02:10:01;;;;;;;5.90;5.40;;;27.10;50.60;;;;;;4763666;56;21080;-29
2022/07/17 02:15:03;;;;;;;6.50;5.90;;;27.10;50.60;;;;;;4615197;60;21084;-29
2022/07/17 02:20:06;;;;;;;6.20;5.70;;;27.10;50.60;;;;;;4662103;56;20980;-29
2022/07/17 02:25:09;;;;;;;5.93;5.32;;;27.10;50.70;;;;;;4707160;56;21502;-29
2022/07/17 02:30:13;;;;;;;6.00;5.40;;;27.10;50.60;;;;;;4826792;56;21502;-31
2022/07/17 02:35:14;;;;;;;6.45;5.70;;;27.10;50.70;;;;;;4902124;56;21119;-28
2022/07/17 02:40:15;;;;;;;6.65;6.05;;;27.10;50.70;;;;;;4757618;56;21049;-30
2022/07/17 02:45:15;;;;;;;6.10;5.60;;;27.10;50.70;;;;;;4804068;56;21060;-30
2022/07/17 02:50:16;;;;;;;5.57;4.97;;;27.20;50.80;;;;;;4746335;56;21021;-30
2022/07/17 02:55:18;;;;;;;5.72;5.20;;;27.20;50.80;;;;;;4615513;57;21076;-31
2022/07/17 03:00:20;;;;;;;6.00;5.50;;;27.10;50.70;;;;;;4763157;56;21597;-30
2022/07/17 03:05:21;;;;;;;6.00;5.50;;;27.10;50.70;;;;;;4704852;56;21466;-30
2022/07/17 03:10:22;;;;;;;5.90;5.40;;;27.10;50.80;;;;;;4702952;56;21045;-30
2022/07/17 03:15:23;;;;;;;5.87;5.32;;;27.10;50.80;;;;;;4655237;56;21529;-30
2022/07/17 03:20:24;;;;;;;5.72;5.18;;;27.20;51.00;;;;;;4624107;56;21017;-30
2022/07/17 03:25:25;;;;;;;5.93;5.32;;;27.10;50.80;;;;;;4636157;56;21033;-36
2022/07/17 03:30:26;;;;;;;5.93;5.43;;;27.10;50.70;;;;;;4650623;56;21020;-32
2022/07/17 03:35:27;;;;;;;5.75;5.25;;;27.10;50.80;;;;;;4615371;60;21037;-32
2022/07/17 03:40:28;;;;;;;5.72;5.22;;;27.10;50.80;;;;;;4938694;56;21018;-29
2022/07/17 03:45:28;;;;;;;5.68;5.18;;;27.10;50.80;;;;;;4677655;56;21037;-29
2022/07/17 03:50:29;;;;;;;5.70;5.20;;;27.10;50.80;;;;;;4813877;56;21052;-26
2022/07/17 03:55:30;;;;;;;5.40;4.90;;;27.10;50.80;;;;;;4811410;56;21095;-31
2022/07/17 04:00:31;;;;;;;5.30;4.90;;;27.10;50.80;;;;;;4684269;56;21012;-29
2022/07/17 04:05:32;;;;;;;5.45;5.05;;;27.10;50.90;;;;;;4639967;56;21080;-30
2022/07/17 04:10:33;;;;;;;5.60;5.10;;;27.10;50.90;;;;;;4670786;56;21104;-30
2022/07/17 04:15:49;;;;;;;5.53;5.07;;;27.10;50.80;;;;;;4634074;56;21088;-29
2022/07/17 04:20:50;;;;;;;5.78;5.25;;;27.10;50.90;;;;;;4649669;56;21116;-28
2022/07/17 04:25:51;;;;;;;5.45;5.00;;;27.10;50.80;;;;;;4644754;56;20997;-30
2022/07/17 04:30:52;;;;;;;4.95;4.53;;;27.10;51.50;;;;;;4839919;56;21084;-29
2022/07/17 04:35:53;;;;;;;5.47;4.97;;;27.10;51.00;;;;;;4716657;56;21487;-29
2022/07/17 04:40:54;;;;;;;5.75;5.25;;;27.10;50.90;;;;;;4614260;60;21017;-31
2022/07/17 04:45:54;;;;;;;5.40;5.00;;;27.10;51.10;;;;;;4615264;60;20996;-29
2022/07/17 04:50:55;;;;;;;5.15;4.75;;;27.10;50.90;;;;;;4924451;56;21008;-28
2022/07/17 04:55:56;;;;;;;5.25;4.85;;;27.10;50.90;;;;;;4615320;60;21004;-32
2022/07/17 05:00:57;;;;;;;5.50;5.00;;;27.10;50.90;;;;;;4615325;56;21637;-31
2022/07/17 05:05:58;;;;;;;5.72;5.22;;;27.10;51.00;;;;;;4663153;56;20989;-31
2022/07/17 05:10:59;;;;;;;5.30;4.80;;;27.10;50.90;;;;;;4722241;56;21020;-30
2022/07/17 05:16:00;;;;;;;5.80;5.30;;;27.10;51.00;;;;;;4653946;56;21004;-31
2022/07/17 05:21:00;;;;;;;5.60;5.15;;;27.10;51.00;;;;;;4615153;60;21012;-29
2022/07/17 05:26:01;;;;;;;6.18;5.57;;;27.10;50.90;;;;;;4672961;56;21047;-30
2022/07/17 05:31:02;;;;;;;5.25;4.80;;;27.10;50.90;;;;;;4859118;56;21104;-33
2022/07/17 05:36:04;;;;;;;5.93;5.43;;;27.10;50.90;;;;;;4741360;56;21005;-30
2022/07/17 05:41:05;;;;;;;6.55;5.37;;;27.10;50.90;;;;;;4683910;56;21001;-31
2022/07/17 05:46:05;;;;;;;6.10;5.55;;;27.10;50.90;;;;;;5048801;56;21072;-31
2022/07/17 05:51:06;;;;;;;6.28;5.68;;;27.10;51.50;;;;;;5072942;56;21028;-30
2022/07/17 05:56:07;;;;;;;6.25;5.65;;;27.10;50.90;;;;;;4637819;56;21526;-28
2022/07/17 06:01:08;;;;;;;6.05;5.47;;;27.10;50.90;;;;;;4758769;56;21012;-28
2022/07/17 06:06:09;;;;;;;6.78;5.60;;;27.10;51.00;;;;;;4614941;60;21084;-31
2022/07/17 06:11:09;;;;;;;6.90;6.07;;;27.10;51.00;;;;;;4711397;56;21092;-28
2022/07/17 06:16:10;;;;;;;6.55;5.85;;;27.10;51.60;;;;;;4687739;56;21064;-29
2022/07/17 06:21:11;;;;;;;6.68;5.97;;;27.10;50.90;;;;;;4615347;57;21079;-33
2022/07/17 06:26:12;;;;;;;7.10;6.40;;;27.10;51.00;;;;;;4656760;56;21008;-32
2022/07/17 06:31:13;;;;;;;7.28;6.00;;;27.10;51.50;;;;;;4658742;56;21527;-33
2022/07/17 06:36:13;;;;;;;6.75;6.12;;;27.10;51.00;;;;;;4715924;56;21016;-28
2022/07/17 06:41:14;;;;;;;6.62;5.97;;;27.10;51.00;;;;;;4615583;60;21076;-29
2022/07/17 06:46:15;;;;;;;7.20;6.50;;;27.10;50.90;;;;;;4637071;56;21012;-28
2022/07/17 06:51:16;;;;;;;6.97;6.28;;;27.10;50.90;;;;;;4788504;56;21044;-33
2022/07/17 06:56:17;;;;;;;7.05;6.28;;;27.10;50.90;;;;;;4615172;58;21021;-30
2022/07/17 07:01:17;;;;;;;7.05;6.35;;;27.10;50.90;;;;;;4655201;56;21493;-30
2022/07/17 07:06:18;;;;;;;7.72;6.70;;;27.10;50.90;;;;;;4639998;56;21060;-32
2022/07/17 07:11:19;;;;;;;7.45;6.68;;;27.10;50.90;;;;;;4783243;56;21108;-29
2022/07/17 07:16:20;;;;;;;8.13;6.60;;;27.10;50.90;;;;;;4717913;56;21040;-27
2022/07/17 07:21:22;;;;;;;7.62;6.87;;;27.10;50.80;;;;;;4615325;60;21543;-29
2022/07/17 07:26:24;;;;;;;7.35;6.50;;;27.10;50.90;;;;;;4654715;56;21508;-32
2022/07/17 07:31:24;;;;;;;7.57;6.80;;;27.10;50.80;;;;;;4830443;56;21028;-31
2022/07/17 07:36:25;;;;;;;7.32;6.62;;;27.10;50.80;;;;;;4904072;56;21546;-31
2022/07/17 07:41:26;;;;;;;7.70;6.75;;;27.10;50.90;;;;;;4848874;56;21190;-31
2022/07/17 07:46:27;;;;;;;7.43;6.53;;;27.10;50.70;;;;;;4690719;56;21021;-30
2022/07/17 07:51:28;;;;;;;7.05;6.25;;;27.10;50.80;;;;;;4677785;56;21554;-31
2022/07/17 07:56:29;;;;;;;7.30;6.43;;;27.10;50.70;;;;;;4707462;56;21608;-28
2022/07/17 08:01:30;;;;;;;7.10;6.40;;;27.10;50.70;;;;;;4722067;56;21095;-32
2022/07/17 08:06:31;;;;;;;7.60;6.45;;;27.10;50.70;;;;;;4672702;56;21020;-28
2022/07/17 08:11:32;;;;;;;7.57;6.55;;;27.10;50.60;;;;;;4645386;56;21566;-29
2022/07/17 08:16:33;;;;;;;7.05;6.35;;;27.10;50.50;;;;;;4616150;56;21040;-30
2022/07/17 08:21:33;;;;;;;9.13;6.20;;;27.10;50.60;;;;;;4652919;56;21090;-30
2022/07/17 08:26:34;;;;;;;7.43;6.62;;;27.10;50.50;;;;;;4890109;56;21020;-32
2022/07/17 08:31:35;;;;;;;7.95;6.70;;;27.10;51.10;;;;;;4651421;56;21538;-30
2022/07/17 08:36:36;;;;;;;7.55;6.28;;;27.10;50.40;;;;;;4615303;60;21059;-31
2022/07/17 08:41:38;;;;;;;8.48;6.43;;;27.10;50.50;;;;;;4694511;56;21063;-30
2022/07/17 08:46:39;;;;;;;7.62;6.50;;;27.10;50.40;;;;;;4615435;56;21000;-30
2022/07/17 08:51:40;;;;;;;8.02;6.25;;;27.10;50.40;;;;;;4888240;56;21104;-29
2022/07/17 08:56:41;;;;;;;7.32;6.37;;;27.10;50.30;;;;;;4779507;56;21023;-30
2022/07/17 09:01:42;;;;;;;7.68;6.57;;;27.10;50.20;;;;;;4615408;60;21073;-29
2022/07/17 09:06:42;;;;;;;8.10;6.78;;;27.10;50.20;;;;;;4690552;56;21060;-30
2022/07/17 09:11:45;;;;;;;8.48;6.85;;;27.10;50.20;;;;;;4615056;60;21574;-32
2022/07/17 09:16:59;;;;;;;8.77;6.03;;;27.10;50.10;;;;;;4640337;56;21069;-33
2022/07/17 09:22:18;;;;;;;8.73;6.70;;;27.10;50.20;;;;;;4615115;60;21574;-30
2022/07/17 09:27:51;;;;;;;7.53;6.72;;;27.10;50.20;;;;;;4692279;56;21498;-33
2022/07/17 09:32:55;;;;;;;7.15;6.03;;;27.10;50.20;;;;;;4663828;56;21029;-31
2022/07/17 09:37:56;;;;;;;8.27;6.90;;;27.10;50.10;;;;;;4615032;60;21024;-31
2022/07/17 09:42:57;;;;;;;10.45;6.70;;;27.10;50.10;;;;;;4615359;60;21031;-30
2022/07/17 09:47:58;;;;;;;7.28;6.47;;;27.10;50.10;;;;;;4754652;56;21084;-31
2022/07/17 09:53:00;;;;;;;7.60;6.80;;;27.10;50.10;;;;;;4920667;56;21045;-30
2022/07/17 09:58:03;;;;;;;7.32;6.50;;;27.10;50.00;;;;;;4658012;56;21092;-32
2022/07/17 10:03:05;;;;;;;7.10;6.40;;;27.10;50.00;;;;;;4715576;56;21012;-30
2022/07/17 10:08:06;;;;;;;8.20;6.78;;;27.10;49.90;;;;;;4650483;56;21495;-31
2022/07/17 10:13:08;;;;;;;7.18;6.20;;;27.10;49.90;;;;;;4624669;56;21012;-31
2022/07/17 10:18:09;;;;;;;7.07;6.37;;;27.10;49.90;;;;;;4738341;56;21018;-34
2022/07/17 10:23:14;;;;;;;6.37;5.78;;;27.10;49.90;;;;;;4659585;56;21089;-29
2022/07/17 10:28:16;;;;;;;6.97;6.18;;;27.10;49.90;;;;;;4805891;56;21012;-30
2022/07/17 10:33:17;;;;;;;6.95;6.25;;;27.10;49.90;;;;;;5021372;56;21502;-30
2022/07/17 10:38:18;;;;;;;8.05;6.47;;;27.10;49.80;;;;;;4645327;56;21020;-30
2022/07/17 10:43:19;;;;;;;7.18;6.45;;;27.10;49.90;;;;;;4641559;56;21526;-30
2022/07/17 10:48:22;;;;;;;6.80;6.03;;;27.10;49.90;;;;;;4803564;56;21084;-30
2022/07/17 10:53:35;;;;;;;7.22;6.43;;;27.20;49.90;;;;;;4654395;56;21594;-31
2022/07/17 10:58:42;;;;;;;7.80;6.22;;;27.10;49.80;;;;;;4635679;56;21535;-29
2022/07/17 11:03:54;;;;;;;7.20;6.50;;;27.10;49.80;;;;;;4640933;56;21076;-32
2022/07/17 11:09:10;;;;;;;6.90;6.20;;;27.10;49.90;;;;;;4728276;56;21538;-31
2022/07/17 11:14:18;;;;;;;7.93;6.37;;;27.10;49.80;;;;;;4614797;60;21581;-31
2022/07/17 11:19:39;;;;;;;7.47;6.70;;;27.10;49.80;;;;;;4661629;56;21539;-30
2022/07/17 11:24:42;;;;;;;8.35;6.93;;;27.10;49.80;;;;;;4689836;56;21017;-30
2022/07/17 11:29:45;;;;;;;7.22;6.22;;;27.10;49.90;;;;;;4707491;56;21507;-30
2022/07/17 11:34:47;;;;;;;6.97;6.28;;;27.10;49.90;;;;;;4614053;60;21566;-29
2022/07/17 11:39:49;;;;;;;7.53;6.10;;;27.10;49.80;;;;;;4615305;60;21023;-28
2022/07/17 11:44:55;;;;;;;7.75;6.95;;;27.10;49.80;;;;;;4766514;56;21011;-29
2022/07/17 11:50:13;;;;;;;6.37;5.78;;;27.10;50.30;;;;;;4638906;56;21558;-30
2022/07/17 11:55:14;;;;;;;8.55;6.50;;;27.10;49.80;;;;;;4652997;56;21061;-30
2022/07/17 12:00:18;;;;;;;7.05;6.32;;;27.10;49.70;;;;;;4688961;56;21495;-30
2022/07/17 12:05:27;;;;;;;7.35;6.18;;;27.10;49.70;;;;;;4683473;56;21008;-31
2022/07/17 12:10:30;;;;;;;7.37;6.20;;;27.10;49.70;;;;;;4662502;56;21040;-33
2022/07/17 12:15:42;;;;;;;7.15;6.43;;;27.10;49.70;;;;;;4617016;56;21092;-27
2022/07/17 12:20:45;;;;;;;6.78;6.10;;;27.10;49.80;;;;;;4687660;56;21000;-30
2022/07/17 12:25:46;;;;;;;6.78;6.15;;;27.20;49.80;;;;;;4742455;56;21105;-30
2022/07/17 12:30:47;;;;;;;6.80;6.03;;;27.10;49.70;;;;;;4615070;60;21020;-32
2022/07/17 12:35:48;;;;;;;6.95;5.80;;;27.10;49.70;;;;;;4615253;60;21012;-29
2022/07/17 12:40:49;;;;;;;7.22;6.50;;;27.10;49.70;;;;;;4768582;56;21518;-31
2022/07/17 12:45:49;;;;;;;6.85;6.15;;;27.10;49.70;;;;;;4736467;56;21013;-32
2022/07/17 12:50:50;;;;;;;7.05;6.35;;;27.10;49.70;;;;;;4635614;56;21016;-31
2022/07/17 12:55:51;;;;;;;7.05;6.20;;;27.10;49.70;;;;;;4657724;56;21012;-31
2022/07/17 13:00:52;;;;;;;6.47;5.87;;;27.10;49.70;;;;;;4687453;56;21067;-26
2022/07/17 13:05:53;;;;;;;7.28;6.43;;;27.10;49.70;;;;;;4652236;56;21136;-30
2022/07/17 13:10:54;;;;;;;7.05;6.35;;;27.10;49.70;;;;;;4650759;56;21080;-29
2022/07/17 13:15:56;;;;;;;7.18;6.10;;;27.10;49.80;;;;;;4637225;56;21072;-28
2022/07/17 13:20:57;;;;;;;6.72;6.03;;;27.20;49.80;;;;;;4615545;56;21088;-32
2022/07/17 13:25:57;;;;;;;6.57;5.87;;;27.10;49.70;;;;;;4722085;56;21008;-29
2022/07/17 13:30:58;;;;;;;7.85;6.30;;;27.20;49.70;;;;;;4615027;60;21100;-30
2022/07/17 13:35:59;;;;;;;6.65;5.85;;;27.20;49.70;;;;;;4632840;56;21088;-29
2022/07/17 13:41:00;;;;;;;6.85;6.15;;;27.20;49.80;;;;;;4781636;56;21546;-29
2022/07/17 13:46:01;;;;;;;7.45;5.68;;;27.20;49.90;;;;;;4710683;56;21056;-28
2022/07/17 13:51:04;;;;;;;6.80;6.10;;;27.10;49.70;;;;;;4702849;56;21036;-30
2022/07/17 13:56:06;;;;;;;7.00;6.25;;;27.20;49.70;;;;;;4700506;56;21016;-29
2022/07/17 14:01:07;;;;;;;6.50;5.80;;;27.20;49.70;;;;;;4615299;57;21535;-34
2022/07/17 14:06:08;;;;;;;7.10;6.37;;;27.20;49.70;;;;;;4615074;56;21060;-29
2022/07/17 14:11:11;;;;;;;6.15;5.55;;;27.20;49.70;;;;;;4705195;56;21056;-29
2022/07/17 14:16:15;;;;;;;6.32;5.72;;;27.20;49.70;;;;;;4641570;56;21451;-34
2022/07/17 14:21:15;;;;;;;6.35;5.75;;;27.20;49.80;;;;;;4665921;56;21615;-30
2022/07/17 14:26:16;;;;;;;6.90;6.18;;;27.20;50.40;;;;;;4695378;56;21057;-34
2022/07/17 14:31:18;;;;;;;6.72;6.07;;;27.20;49.70;;;;;;4628862;56;21149;-30
2022/07/17 14:36:18;;;;;;;6.55;5.65;;;27.20;49.70;;;;;;4615268;60;21058;-31
2022/07/17 14:41:21;;;;;;;6.03;5.53;;;27.20;49.70;;;;;;4727392;56;21064;-31
2022/07/17 14:46:22;;;;;;;6.25;5.65;;;27.20;49.80;;;;;;4743399;56;21514;-29
2022/07/17 14:51:23;;;;;;;6.05;5.55;;;27.20;49.80;;;;;;4687548;56;21048;-27
2022/07/17 14:56:23;;;;;;;6.65;6.05;;;27.20;49.80;;;;;;4615223;60;21033;-29
2022/07/17 15:01:24;;;;;;;6.45;5.75;;;27.20;49.80;;;;;;5073478;56;21144;-28
2022/07/17 15:06:25;;;;;;;6.72;5.57;;;27.20;49.70;;;;;;4732529;56;21028;-31
2022/07/17 15:11:26;;;;;;;6.82;5.78;;;27.20;49.70;;;;;;4665314;56;21051;-33
2022/07/17 15:16:27;;;;;;;6.25;5.65;;;27.20;49.80;;;;;;4801841;56;21028;-32
2022/07/17 15:21:28;;;;;;;6.60;6.00;;;27.20;49.70;;;;;;4632300;56;21515;-32
2022/07/17 15:26:28;;;;;;;6.22;5.62;;;27.20;49.80;;;;;;4668734;56;21040;-35
2022/07/17 15:31:30;;;;;;;6.12;5.60;;;27.20;49.80;;;;;;4634775;56;21104;-33
2022/07/17 15:36:30;;;;;;;5.60;5.10;;;27.20;49.80;;;;;;4615558;60;21489;-28
2022/07/17 15:41:31;;;;;;;6.10;5.50;;;27.20;49.80;;;;;;4703371;56;21065;-29
2022/07/17 15:46:32;;;;;;;6.30;5.70;;;27.20;49.80;;;;;;4708858;56;21089;-30
2022/07/17 15:51:33;;;;;;;6.90;6.20;;;27.20;49.80;;;;;;4638748;56;21080;-29
2022/07/17 15:56:35;;;;;;;6.85;6.15;;;27.20;49.80;;;;;;4827993;56;21020;-28
2022/07/17 16:01:36;;;;;;;6.20;5.60;;;27.20;49.80;;;;;;4615890;56;21475;-28
2022/07/17 16:06:37;;;;;;;6.00;5.40;;;27.20;50.10;;;;;;4654712;56;21012;-26
2022/07/17 16:11:38;;;;;;;7.72;5.75;;;27.20;49.80;;;;;;4693335;56;21106;-33
2022/07/17 16:16:39;;;;;;;5.80;5.30;;;27.20;49.80;;;;;;4690449;56;21036;-33
2022/07/17 16:21:41;;;;;;;6.75;5.82;;;27.20;49.80;;;;;;4689650;56;21550;-33
2022/07/17 16:26:42;;;;;;;6.40;5.80;;;27.20;49.90;;;;;;4764863;56;21565;-34
2022/07/17 16:31:43;;;;;;;5.80;5.30;;;27.20;50.00;;;;;;4614891;60;21040;-30
2022/07/17 16:36:44;;;;;;;6.78;5.80;;;27.20;49.80;;;;;;4615026;60;21136;-31
2022/07/17 16:41:45;;;;;;;5.57;5.07;;;27.20;49.90;;;;;;4631785;56;21567;-31
2022/07/17 16:46:45;;;;;;;6.32;5.40;;;27.20;50.00;;;;;;4669994;56;21068;-29
2022/07/17 16:51:48;;;;;;;6.30;5.70;;;27.20;49.90;;;;;;4708958;56;21558;-29
2022/07/17 16:56:48;;;;;;;5.90;5.40;;;27.20;49.90;;;;;;4620808;56;21557;-33
2022/07/17 17:01:52;;;;;;;5.60;5.07;;;27.20;49.90;;;;;;4677823;56;21020;-33
2022/07/17 17:06:53;;;;;;;6.03;5.50;;;27.20;49.90;;;;;;4615081;60;21065;-30
2022/07/17 17:11:54;;;;;;;5.93;5.32;;;27.20;49.90;;;;;;4637506;56;21635;-28
2022/07/17 17:16:55;;;;;;;6.03;5.43;;;27.20;49.90;;;;;;4770448;56;21088;-31
2022/07/17 17:21:56;;;;;;;5.78;5.22;;;27.20;49.90;;;;;;4800771;56;21036;-31
2022/07/17 17:26:57;;;;;;;5.82;5.22;;;27.20;49.90;;;;;;4615103;60;21027;-31
2022/07/17 17:31:57;;;;;;;5.78;5.28;;;27.20;50.00;;;;;;4800103;56;21491;-32
2022/07/17 17:36:58;;;;;;;6.10;5.40;;;27.20;49.90;;;;;;4717228;56;21565;-30
2022/07/17 17:41:59;;;;;;;6.10;5.50;;;27.20;49.90;;;;;;4615402;60;21035;-30
2022/07/17 17:47:00;;;;;;;5.97;5.37;;;27.20;50.00;;;;;;4712124;56;21079;-29
2022/07/17 17:52:01;;;;;;;5.80;5.25;;;27.20;49.90;;;;;;4626071;56;21028;-33
2022/07/17 17:57:02;;;;;;;6.10;5.57;;;27.20;49.90;;;;;;4702684;56;21048;-30
2022/07/17 18:02:05;;;;;;;5.80;5.30;;;27.20;49.90;;;;;;4662211;56;21088;-30
2022/07/17 18:07:06;;;;;;;5.82;5.30;;;27.20;49.90;;;;;;4614969;60;21546;-29
2022/07/17 18:12:06;;;;;;;5.87;5.32;;;27.20;50.00;;;;;;4648654;56;21099;-29
2022/07/17 18:17:07;;;;;;;5.95;5.40;;;27.20;49.90;;;;;;4615222;57;21482;-32
2022/07/17 18:22:08;;;;;;;5.75;5.25;;;27.20;49.90;;;;;;4646350;56;21020;-30
2022/07/17 18:27:09;;;;;;;5.75;5.22;;;27.20;49.80;;;;;;4664911;56;21088;-31
2022/07/17 18:32:10;;;;;;;6.37;5.28;;;27.20;49.80;;;;;;4705106;56;21020;-29
2022/07/17 18:37:11;;;;;;;5.78;5.28;;;27.20;49.80;;;;;;4780121;56;21530;-30
2022/07/17 18:42:12;;;;;;;5.78;5.22;;;27.20;49.80;;;;;;4615984;56;21009;-31
2022/07/17 18:47:12;;;;;;;5.95;5.45;;;27.20;49.70;;;;;;4801350;56;21554;-30
2022/07/17 18:52:14;;;;;;;5.68;5.18;;;27.20;49.70;;;;;;4619638;56;21588;-28
2022/07/17 18:57:15;;;;;;;5.85;5.35;;;27.20;49.70;;;;;;4615631;60;21494;-30
2022/07/17 19:02:18;;;;;;;5.87;5.37;;;27.20;49.70;;;;;;4650960;56;21004;-31
2022/07/17 19:07:19;;;;;;;5.93;5.43;;;27.20;49.60;;;;;;4651915;56;21459;-30
2022/07/17 19:12:20;;;;;;;5.53;5.03;;;27.20;49.60;;;;;;4765899;56;21036;-28
2022/07/17 19:17:21;;;;;;;6.50;5.90;;;27.20;49.60;;;;;;4767271;56;21049;-28
2022/07/17 19:22:24;;;;;;;6.12;5.53;;;27.20;49.30;;;;;;4686673;56;21073;-28
2022/07/17 19:27:25;;;;;;;5.90;5.30;;;27.20;49.40;;;;;;4759193;56;21550;-29
2022/07/17 19:32:26;;;;;;;5.60;5.10;;;27.20;49.40;;;;;;4680472;56;21080;-29
2022/07/17 19:37:27;;;;;;;6.07;5.47;;;27.20;49.40;;;;;;4634404;56;21499;-30
2022/07/17 19:42:28;;;;;;;5.60;5.10;;;27.20;49.40;;;;;;4633411;56;21479;-27
2022/07/17 19:47:31;;;;;;;6.03;5.50;;;27.20;49.30;;;;;;4700565;56;21116;-29
2022/07/17 19:52:32;;;;;;;5.18;4.75;;;27.20;49.30;;;;;;4665579;56;21506;-29
2022/07/17 19:57:33;;;;;;;5.50;5.00;;;27.20;49.20;;;;;;4762085;56;21016;-31
2022/07/17 20:02:34;;;;;;;5.93;5.43;;;27.20;49.20;;;;;;4852118;56;21012;-31
2022/07/17 20:07:35;;;;;;;6.30;5.43;;;27.20;49.10;;;;;;4615735;57;21077;-29
2022/07/17 20:12:36;;;;;;;5.50;5.00;;;27.20;49.10;;;;;;4970859;56;21040;-33
2022/07/17 20:17:37;;;;;;;5.62;5.07;;;27.20;49.10;;;;;;4771600;56;21072;-33
2022/07/17 20:22:37;;;;;;;5.97;5.35;;;27.20;49.00;;;;;;4615590;56;21047;-32
2022/07/17 20:27:38;;;;;;;5.32;4.82;;;27.20;49.10;;;;;;4677215;56;21108;-31
2022/07/17 20:32:39;;;;;;;5.50;5.00;;;27.20;49.00;;;;;;4642576;56;21060;-31
2022/07/17 20:37:40;;;;;;;5.80;5.25;;;27.20;49.00;;;;;;4742568;56;21016;-29
2022/07/17 20:42:40;;;;;;;5.72;5.22;;;27.20;49.00;;;;;;4638755;56;21475;-31
2022/07/17 20:47:41;;;;;;;5.80;5.30;;;27.20;48.90;;;;;;4656921;56;21056;-31
2022/07/17 20:52:42;;;;;;;5.72;5.22;;;27.20;49.00;;;;;;4838839;56;21012;-29
2022/07/17 20:57:43;;;;;;;5.97;4.87;;;27.20;48.90;;;;;;4647399;56;21020;-34
2022/07/17 21:02:44;;;;;;;5.55;4.97;;;27.20;48.90;;;;;;4699022;56;21044;-32
2022/07/17 21:07:45;;;;;;;4.87;4.47;;;27.20;48.90;;;;;;4749159;56;21073;-30
2022/07/17 21:12:45;;;;;;;5.80;5.20;;;27.20;48.80;;;;;;4828655;56;21036;-29
2022/07/17 21:17:46;;;;;;;5.30;4.80;;;27.20;48.80;;;;;;4615407;57;21086;-30
2022/07/17 21:22:47;;;;;;;5.28;4.78;;;27.20;48.80;;;;;;4614875;60;21045;-30
2022/07/17 21:27:48;;;;;;;6.18;4.93;;;27.20;48.80;;;;;;4615054;60;21506;-28
2022/07/17 21:32:49;;;;;;;6.10;5.20;;;27.20;48.80;;;;;;4614873;60;21510;-29
2022/07/17 21:37:49;;;;;;;5.93;5.12;;;27.20;48.80;;;;;;4615347;60;20985;-29
2022/07/17 21:42:50;;;;;;;5.05;4.55;;;27.20;48.90;;;;;;4872583;56;21517;-34
2022/07/17 21:47:52;;;;;;;5.97;5.37;;;27.20;49.00;;;;;;4615293;60;21470;-29
2022/07/17 21:52:53;;;;;;;5.90;4.70;;;27.20;49.00;;;;;;4614849;60;21093;-32
2022/07/17 21:57:54;;;;;;;4.90;4.50;;;27.20;49.00;;;;;;4652717;56;21539;-30
2022/07/17 22:02:56;;;;;;;5.62;5.00;;;27.20;49.00;;;;;;4650535;56;21056;-31
2022/07/17 22:07:57;;;;;;;5.90;4.93;;;27.20;49.10;;;;;;4669087;56;21120;-31
2022/07/17 22:12:59;;;;;;;5.93;5.32;;;27.20;49.10;;;;;;4831433;56;21020;-29
2022/07/17 22:18:00;;;;;;;5.28;4.82;;;27.20;49.20;;;;;;4743630;56;21008;-28
2022/07/17 22:23:01;;;;;;;5.22;4.72;;;27.20;49.80;;;;;;4656868;56;21033;-30
2022/07/17 22:28:04;;;;;;;4.80;4.40;;;27.20;49.20;;;;;;4778487;56;21025;-32
2022/07/17 22:33:04;;;;;;;5.20;4.70;;;27.20;49.30;;;;;;4804525;56;21076;-29
2022/07/17 22:38:05;;;;;;;5.35;4.85;;;27.20;49.30;;;;;;4712001;56;21459;-28
2022/07/17 22:43:06;;;;;;;5.40;4.90;;;27.20;49.30;;;;;;4627649;56;21020;-36
2022/07/17 22:48:07;;;;;;;6.18;5.03;;;27.20;49.40;;;;;;4638315;56;21012;-33
2022/07/17 22:53:08;;;;;;;4.82;4.32;;;27.20;49.30;;;;;;4720008;56;21543;-30
2022/07/17 22:58:09;;;;;;;5.78;5.12;;;27.20;49.50;;;;;;4783661;56;21033;-29
2022/07/17 23:03:09;;;;;;;5.35;4.85;;;27.20;49.40;;;;;;4659692;56;21061;-29
2022/07/17 23:08:11;;;;;;;5.60;4.93;;;27.20;49.60;;;;;;4704226;56;21092;-32
2022/07/17 23:13:12;;;;;;;4.80;4.40;;;27.20;49.50;;;;;;4720565;56;21076;-33
2022/07/17 23:18:12;;;;;;;5.60;5.03;;;27.20;49.60;;;;;;4747500;56;21073;-29
2022/07/17 23:23:13;;;;;;;5.00;4.50;;;27.20;49.50;;;;;;4660883;56;21594;-29
2022/07/17 23:28:14;;;;;;;4.82;4.35;;;27.20;49.60;;;;;;4652858;56;21020;-30
2022/07/17 23:33:15;;;;;;;5.20;4.70;;;27.20;49.60;;;;;;4866076;56;21555;-30
2022/07/17 23:38:16;;;;;;;4.90;4.30;;;27.20;49.60;;;;;;4615162;60;21518;-33
2022/07/17 23:43:16;;;;;;;5.00;4.50;;;27.20;49.80;;;;;;4856634;56;21064;-29
2022/07/17 23:48:17;;;;;;;5.37;4.45;;;27.20;49.70;;;;;;4687943;56;21028;-29
2022/07/17 23:53:18;;;;;;;6.12;4.75;;;27.20;49.70;;;;;;4722671;56;21562;-29
2022/07/17 23:58:19;;;;;;;5.22;4.72;;;27.20;49.70;;;;;;4706978;56;21024;-29
